createdAt,value
2023-09-22T00:00:46.411Z,995.59
2023-09-22T00:01:46.394Z,995.60
2023-09-22T00:02:47.007Z,995.61
2023-09-22T00:03:46.827Z,995.60
2023-09-22T00:04:46.414Z,995.62
2023-09-22T00:05:46.354Z,995.68
2023-09-22T00:06:46.374Z,995.68
2023-09-22T00:07:46.415Z,995.67
2023-09-22T00:08:46.352Z,995.73
2023-09-22T00:09:46.410Z,995.73
2023-09-22T00:10:46.341Z,995.73
2023-09-22T00:11:46.332Z,995.78
2023-09-22T00:12:46.411Z,995.76
2023-09-22T00:13:46.456Z,995.79
2023-09-22T00:14:46.333Z,995.76
2023-09-22T00:15:46.345Z,995.83
2023-09-22T00:16:46.375Z,995.80
2023-09-22T00:17:46.309Z,995.78
2023-09-22T00:18:46.314Z,995.78
2023-09-22T00:19:46.415Z,995.75
2023-09-22T00:20:46.299Z,995.75
2023-09-22T00:21:46.309Z,995.78
2023-09-22T00:22:46.303Z,995.77
2023-09-22T00:23:46.439Z,995.80
2023-09-22T00:24:46.316Z,995.81
2023-09-22T00:25:47.398Z,995.80
2023-09-22T00:26:46.277Z,995.79
2023-09-22T00:27:46.305Z,995.81
2023-09-22T00:28:46.269Z,995.75
2023-09-22T00:29:46.260Z,995.76
2023-09-22T00:30:46.404Z,995.75
2023-09-22T00:31:46.371Z,995.73
2023-09-22T00:32:46.353Z,995.71
2023-09-22T00:33:46.624Z,995.76
2023-09-22T00:34:46.241Z,995.77
2023-09-22T00:35:46.336Z,995.71
2023-09-22T00:36:46.341Z,995.73
2023-09-22T00:37:46.233Z,995.72
2023-09-22T00:38:46.218Z,995.71
2023-09-22T00:39:46.249Z,995.73
2023-09-22T00:40:46.219Z,995.73
2023-09-22T00:41:46.201Z,995.74
2023-09-22T00:42:46.256Z,995.77
2023-09-22T00:43:46.478Z,995.79
2023-09-22T00:44:46.214Z,995.77
2023-09-22T00:45:46.255Z,995.79
2023-09-22T00:46:46.233Z,995.77
2023-09-22T00:47:46.208Z,995.81
2023-09-22T00:48:46.207Z,995.83
2023-09-22T00:49:46.177Z,995.82
2023-09-22T00:50:46.188Z,995.80
2023-09-22T00:51:46.342Z,995.85
2023-09-22T00:52:46.174Z,995.88
2023-09-22T00:53:46.386Z,995.82
2023-09-22T00:54:46.199Z,995.82
2023-09-22T00:55:46.151Z,995.86
2023-09-22T00:56:46.144Z,995.86
2023-09-22T00:57:46.176Z,995.88
2023-09-22T00:58:46.144Z,995.89
2023-09-22T00:59:46.147Z,995.87
2023-09-22T01:00:46.154Z,995.89
2023-09-22T01:01:46.166Z,995.92
2023-09-22T01:02:46.216Z,995.91
2023-09-22T01:03:46.511Z,995.94
2023-09-22T01:04:46.159Z,995.92
2023-09-22T01:05:46.117Z,995.94
2023-09-22T01:06:46.186Z,995.95
2023-09-22T01:07:46.210Z,995.91
2023-09-22T01:08:46.104Z,995.91
2023-09-22T01:09:46.152Z,995.87
2023-09-22T01:10:46.140Z,995.88
2023-09-22T01:11:46.096Z,995.88
2023-09-22T01:12:46.128Z,995.86
2023-09-22T01:13:46.275Z,995.85
2023-09-22T01:14:46.075Z,995.83
2023-09-22T01:15:46.118Z,995.85
2023-09-22T01:16:46.114Z,995.90
2023-09-22T01:17:46.115Z,995.90
2023-09-22T01:18:46.095Z,995.93
2023-09-22T01:19:46.045Z,995.93
2023-09-22T01:20:46.052Z,995.88
2023-09-22T01:21:46.198Z,995.91
2023-09-22T01:22:46.049Z,995.90
2023-09-22T01:23:46.214Z,995.90
2023-09-22T01:24:46.080Z,995.95
2023-09-22T01:25:46.022Z,995.94
2023-09-22T01:26:46.022Z,995.93
2023-09-22T01:27:46.050Z,995.94
2023-09-22T01:28:46.001Z,995.97
2023-09-22T01:29:46.000Z,995.97
2023-09-22T01:30:46.034Z,995.99
2023-09-22T01:31:46.020Z,995.96
2023-09-22T01:32:46.041Z,996.01
2023-09-22T01:33:46.253Z,996.02
2023-09-22T01:34:45.989Z,996.04
2023-09-22T01:35:45.982Z,996.05
2023-09-22T01:36:46.038Z,996.02
2023-09-22T01:37:45.966Z,996.03
2023-09-22T01:38:46.335Z,996.01
2023-09-22T01:39:46.020Z,996.08
2023-09-22T01:40:45.959Z,996.04
2023-09-22T01:41:45.947Z,996.04
2023-09-22T01:42:45.992Z,996.06
2023-09-22T01:43:45.940Z,996.08
2023-09-22T01:44:45.964Z,996.02
2023-09-22T01:45:46.144Z,996.01
2023-09-22T01:46:45.938Z,996.02
2023-09-22T01:47:45.939Z,996.03
2023-09-22T01:48:46.144Z,996.03
2023-09-22T01:49:45.908Z,996.06
2023-09-22T01:50:45.904Z,996.04
2023-09-22T01:51:45.964Z,996.04
2023-09-22T01:52:45.894Z,996.00
2023-09-22T01:54:26.699Z,996.00
2023-09-22T01:55:26.802Z,996.04
2023-09-22T01:56:26.626Z,996.03
2023-09-22T01:57:26.686Z,996.09
2023-09-22T01:58:26.623Z,996.08
2023-09-22T01:59:26.624Z,996.11
2023-09-22T02:00:26.639Z,996.05
2023-09-22T02:01:26.642Z,996.04
2023-09-22T02:02:26.624Z,996.04
2023-09-22T02:03:26.695Z,996.03
2023-09-22T02:04:26.758Z,996.02
2023-09-22T02:05:26.587Z,996.04
2023-09-22T02:06:26.617Z,996.04
2023-09-22T02:07:26.580Z,996.02
2023-09-22T02:08:26.581Z,996.05
2023-09-22T02:09:26.598Z,996.06
2023-09-22T02:10:26.570Z,996.01
2023-09-22T02:11:26.583Z,996.07
2023-09-22T02:12:26.580Z,996.03
2023-09-22T02:13:26.563Z,996.00
2023-09-22T02:14:26.551Z,996.05
2023-09-22T02:15:26.586Z,995.99
2023-09-22T02:16:26.591Z,995.98
2023-09-22T02:17:26.550Z,995.96
2023-09-22T02:18:26.574Z,995.93
2023-09-22T02:19:26.552Z,995.93
2023-09-22T02:20:26.534Z,995.91
2023-09-22T02:21:26.557Z,995.92
2023-09-22T02:22:26.517Z,995.91
2023-09-22T02:23:26.517Z,995.89
2023-09-22T02:24:26.536Z,995.88
2023-09-22T02:25:26.530Z,995.93
2023-09-22T02:26:26.494Z,995.96
2023-09-22T02:27:26.692Z,995.95
2023-09-22T02:28:26.483Z,995.93
2023-09-22T02:29:26.499Z,995.96
2023-09-22T02:30:26.563Z,996.00
2023-09-22T02:31:26.517Z,996.00
2023-09-22T02:32:26.494Z,996.01
2023-09-22T02:33:26.508Z,996.00
2023-09-22T02:34:26.469Z,996.01
2023-09-22T02:35:26.458Z,996.00
2023-09-22T02:36:26.490Z,996.01
2023-09-22T02:37:26.447Z,996.06
2023-09-22T02:38:26.442Z,996.08
2023-09-22T02:39:26.467Z,996.09
2023-09-22T02:40:26.438Z,996.11
2023-09-22T02:41:26.434Z,996.11
2023-09-22T02:42:26.482Z,996.12
2023-09-22T02:43:26.452Z,996.15
2023-09-22T02:44:26.417Z,996.17
2023-09-22T02:45:26.543Z,996.23
2023-09-22T02:46:26.486Z,996.26
2023-09-22T02:47:26.501Z,996.30
2023-09-22T02:48:26.428Z,996.29
2023-09-22T02:49:26.395Z,996.32
2023-09-22T02:50:26.397Z,996.37
2023-09-22T02:51:26.457Z,996.35
2023-09-22T02:52:26.385Z,996.36
2023-09-22T02:53:26.373Z,996.36
2023-09-22T02:54:26.413Z,996.35
2023-09-22T02:55:26.368Z,996.34
2023-09-22T02:56:26.362Z,996.34
2023-09-22T02:57:26.385Z,996.37
2023-09-22T02:58:26.349Z,996.33
2023-09-22T02:59:26.406Z,996.29
2023-09-22T03:00:26.371Z,996.27
2023-09-22T03:01:26.363Z,996.28
2023-09-22T03:02:26.355Z,996.28
2023-09-22T03:03:26.474Z,996.32
2023-09-22T03:04:26.318Z,996.35
2023-09-22T03:05:26.324Z,996.36
2023-09-22T03:06:26.331Z,996.38
2023-09-22T03:07:26.299Z,996.42
2023-09-22T03:08:26.304Z,996.46
2023-09-22T03:09:26.333Z,996.41
2023-09-22T03:10:26.304Z,996.39
2023-09-22T03:11:26.288Z,996.35
2023-09-22T03:12:26.288Z,996.32
2023-09-22T03:13:26.276Z,996.34
2023-09-22T03:14:26.279Z,996.35
2023-09-22T03:15:26.316Z,996.37
2023-09-22T03:16:26.334Z,996.33
2023-09-22T03:17:26.286Z,996.32
2023-09-22T03:18:26.273Z,996.28
2023-09-22T03:19:26.251Z,996.28
2023-09-22T03:20:26.236Z,996.25
2023-09-22T03:21:26.250Z,996.21
2023-09-22T03:22:26.227Z,996.22
2023-09-22T03:23:26.230Z,996.19
2023-09-22T03:24:26.250Z,996.21
2023-09-22T03:25:26.211Z,996.15
2023-09-22T03:26:26.214Z,996.14
2023-09-22T03:27:26.219Z,996.09
2023-09-22T03:28:26.201Z,996.09
2023-09-22T03:29:26.190Z,996.04
2023-09-22T03:30:26.248Z,996.07
2023-09-22T03:31:26.217Z,996.08
2023-09-22T03:32:26.220Z,996.03
2023-09-22T03:33:26.271Z,996.03
2023-09-22T03:34:26.173Z,995.98
2023-09-22T03:35:26.163Z,996.00
2023-09-22T03:36:26.225Z,996.04
2023-09-22T03:37:26.149Z,996.08
2023-09-22T03:38:26.152Z,996.03
2023-09-22T03:39:26.265Z,996.01
2023-09-22T03:40:26.149Z,996.03
2023-09-22T03:41:26.127Z,996.08
2023-09-22T03:42:26.210Z,996.01
2023-09-22T03:43:26.129Z,995.97
2023-09-22T03:44:26.118Z,996.00
2023-09-22T03:45:26.115Z,996.02
2023-09-22T03:46:26.160Z,996.06
2023-09-22T03:47:26.157Z,996.04
2023-09-22T03:48:26.120Z,996.05
2023-09-22T03:49:26.100Z,996.04
2023-09-22T03:50:26.090Z,996.04
2023-09-22T03:51:26.120Z,996.05
2023-09-22T03:52:26.102Z,996.07
2023-09-22T03:53:26.097Z,996.06
2023-09-22T03:54:26.111Z,996.09
2023-09-22T03:55:26.060Z,996.10
2023-09-22T03:56:26.057Z,996.12
2023-09-22T03:57:26.054Z,996.13
2023-09-22T03:58:26.043Z,996.11
2023-09-22T03:59:26.040Z,996.13
2023-09-22T04:01:26.204Z,996.10
2023-09-22T04:02:26.065Z,996.07
2023-09-22T04:03:26.161Z,996.07
2023-09-22T04:04:26.132Z,996.06
2023-09-22T04:05:26.037Z,996.07
2023-09-22T04:06:26.076Z,996.05
2023-09-22T04:07:26.040Z,996.05
2023-09-22T04:08:26.023Z,996.03
2023-09-22T04:09:26.009Z,996.04
2023-09-22T04:10:26.015Z,996.05
2023-09-22T04:11:25.980Z,996.02
2023-09-22T04:12:25.985Z,996.05
2023-09-22T04:13:25.970Z,996.05
2023-09-22T04:14:25.969Z,996.08
2023-09-22T04:15:25.999Z,996.08
2023-09-22T04:16:26.074Z,996.06
2023-09-22T04:17:26.090Z,996.05
2023-09-22T04:18:26.016Z,996.06
2023-09-22T04:19:25.965Z,996.08
2023-09-22T04:20:25.938Z,996.05
2023-09-22T04:21:25.960Z,996.08
2023-09-22T04:22:25.936Z,996.05
2023-09-22T04:23:25.933Z,996.11
2023-09-22T04:24:25.996Z,996.08
2023-09-22T04:25:25.924Z,996.11
2023-09-22T04:26:25.909Z,996.12
2023-09-22T04:27:25.912Z,996.17
2023-09-22T04:28:25.915Z,996.15
2023-09-22T04:29:25.893Z,996.20
2023-09-22T04:30:26.209Z,996.22
2023-09-22T04:31:26.024Z,996.28
2023-09-22T04:32:25.883Z,996.31
2023-09-22T04:33:25.885Z,996.33
2023-09-22T04:34:25.870Z,996.35
2023-09-22T04:35:25.937Z,996.44
2023-09-22T04:36:25.885Z,996.41
2023-09-22T04:37:25.854Z,996.45
2023-09-22T04:38:25.858Z,996.47
2023-09-22T04:39:25.876Z,996.41
2023-09-22T04:40:25.876Z,996.39
2023-09-22T04:41:25.836Z,996.37
2023-09-22T04:42:25.884Z,996.29
2023-09-22T04:43:25.825Z,996.28
2023-09-22T04:44:25.836Z,996.26
2023-09-22T04:45:25.853Z,996.28
2023-09-22T04:46:25.871Z,996.21
2023-09-22T04:47:25.867Z,996.21
2023-09-22T04:48:25.965Z,996.16
2023-09-22T04:49:25.823Z,996.14
2023-09-22T04:50:25.811Z,996.15
2023-09-22T04:51:25.886Z,996.18
2023-09-22T04:52:25.816Z,996.18
2023-09-22T04:53:25.814Z,996.19
2023-09-22T04:54:25.854Z,996.23
2023-09-22T04:55:25.787Z,996.23
2023-09-22T04:56:25.786Z,996.28
2023-09-22T04:57:25.873Z,996.32
2023-09-22T04:58:25.781Z,996.33
2023-09-22T04:59:25.776Z,996.38
2023-09-22T05:00:25.951Z,996.41
2023-09-22T05:01:25.833Z,996.41
2023-09-22T05:02:25.809Z,996.45
2023-09-22T05:03:25.890Z,996.46
2023-09-22T05:04:26.010Z,996.46
2023-09-22T05:05:25.771Z,996.51
2023-09-22T05:06:25.820Z,996.52
2023-09-22T05:07:25.777Z,996.56
2023-09-22T05:08:25.773Z,996.57
2023-09-22T05:09:25.785Z,996.59
2023-09-22T05:10:25.765Z,996.62
2023-09-22T05:11:25.801Z,996.66
2023-09-22T05:12:25.756Z,996.68
2023-09-22T05:13:25.748Z,996.71
2023-09-22T05:14:25.763Z,996.70
2023-09-22T05:15:25.845Z,996.65
2023-09-22T05:16:25.760Z,996.64
2023-09-22T05:17:25.783Z,996.68
2023-09-22T05:18:25.758Z,996.69
2023-09-22T05:19:25.787Z,996.70
2023-09-22T05:20:25.757Z,996.69
2023-09-22T05:21:25.888Z,996.71
2023-09-22T05:22:25.738Z,996.70
2023-09-22T05:23:25.843Z,996.68
2023-09-22T05:24:25.761Z,996.67
2023-09-22T05:25:25.726Z,996.65
2023-09-22T05:26:25.903Z,996.63
2023-09-22T05:27:25.758Z,996.63
2023-09-22T05:28:25.726Z,996.57
2023-09-22T05:29:25.727Z,996.58
2023-09-22T05:30:25.779Z,996.63
2023-09-22T05:31:25.928Z,996.62
2023-09-22T05:32:25.780Z,996.64
2023-09-22T05:33:25.830Z,996.63
2023-09-22T05:34:25.716Z,996.66
2023-09-22T05:35:25.736Z,996.67
2023-09-22T05:36:25.728Z,996.68
2023-09-22T05:37:25.734Z,996.70
2023-09-22T05:38:25.714Z,996.69
2023-09-22T05:39:25.797Z,996.75
2023-09-22T05:40:25.714Z,996.78
2023-09-22T05:41:25.699Z,996.80
2023-09-22T05:42:25.833Z,996.82
2023-09-22T05:43:25.705Z,996.80
2023-09-22T05:44:25.698Z,996.77
2023-09-22T05:45:25.722Z,996.75
2023-09-22T05:46:25.762Z,996.76
2023-09-22T05:47:25.730Z,996.82
2023-09-22T05:48:25.992Z,996.84
2023-09-22T05:49:25.694Z,996.86
2023-09-22T05:50:25.706Z,996.89
2023-09-22T05:51:25.761Z,996.93
2023-09-22T05:52:25.690Z,996.95
2023-09-22T05:53:25.700Z,996.90
2023-09-22T05:54:25.699Z,996.90
2023-09-22T05:55:25.707Z,996.88
2023-09-22T05:56:25.695Z,996.87
2023-09-22T05:57:25.699Z,996.87
2023-09-22T05:58:25.685Z,996.84
2023-09-22T05:59:25.702Z,996.83
2023-09-22T06:00:25.789Z,996.82
2023-09-22T06:01:25.716Z,996.74
2023-09-22T06:02:25.701Z,996.75
2023-09-22T06:03:25.705Z,996.79
2023-09-22T06:04:25.758Z,996.83
2023-09-22T06:05:25.698Z,996.84
2023-09-22T06:06:25.671Z,996.87
2023-09-22T06:07:25.671Z,996.89
2023-09-22T06:08:25.674Z,996.90
2023-09-22T06:09:25.673Z,996.88
2023-09-22T06:10:25.838Z,996.91
2023-09-22T06:11:25.689Z,996.93
2023-09-22T06:12:25.664Z,996.90
2023-09-22T06:13:25.668Z,996.96
2023-09-22T06:14:25.666Z,996.96
2023-09-22T06:15:25.674Z,997.01
2023-09-22T06:16:25.743Z,997.03
2023-09-22T06:17:25.681Z,997.06
2023-09-22T06:18:25.682Z,997.05
2023-09-22T06:19:25.673Z,997.06
2023-09-22T06:20:25.663Z,997.05
2023-09-22T06:21:25.658Z,996.98
2023-09-22T06:22:25.658Z,996.90
2023-09-22T06:23:25.658Z,996.92
2023-09-22T06:24:25.667Z,996.90
2023-09-22T06:25:25.658Z,996.90
2023-09-22T06:26:25.662Z,996.89
2023-09-22T06:27:25.672Z,996.87
2023-09-22T06:28:25.659Z,996.85
2023-09-22T06:29:25.703Z,996.90
2023-09-22T06:30:25.653Z,996.89
2023-09-22T06:31:25.675Z,996.95
2023-09-22T06:32:25.739Z,996.97
2023-09-22T06:33:25.649Z,996.97
2023-09-22T06:34:25.649Z,996.96
2023-09-22T06:35:25.656Z,996.96
2023-09-22T06:36:25.666Z,996.99
2023-09-22T06:37:25.663Z,996.98
2023-09-22T06:38:25.649Z,996.98
2023-09-22T06:39:25.645Z,996.99
2023-09-22T06:40:25.651Z,996.97
2023-09-22T06:41:25.644Z,996.99
2023-09-22T06:42:25.653Z,997.02
2023-09-22T06:43:25.728Z,997.06
2023-09-22T06:44:25.659Z,997.05
2023-09-22T06:45:25.687Z,997.02
2023-09-22T06:46:25.943Z,997.05
2023-09-22T06:47:25.645Z,997.09
2023-09-22T06:48:25.634Z,997.10
2023-09-22T06:49:25.651Z,997.09
2023-09-22T06:50:25.631Z,997.08
2023-09-22T06:51:25.645Z,997.06
2023-09-22T06:52:25.632Z,997.08
2023-09-22T06:53:25.683Z,997.07
2023-09-22T06:54:25.630Z,997.07
2023-09-22T06:55:25.632Z,997.08
2023-09-22T06:56:39.202Z,997.14
2023-09-22T06:57:25.631Z,997.15
2023-09-22T06:58:26.301Z,997.16
2023-09-22T06:59:25.749Z,997.18
2023-09-22T07:00:25.626Z,997.20
2023-09-22T07:01:25.723Z,997.20
2023-09-22T07:02:25.810Z,997.23
2023-09-22T07:03:26.052Z,997.25
2023-09-22T07:04:25.758Z,997.30
2023-09-22T07:05:25.687Z,997.30
2023-09-22T07:06:25.624Z,997.35
2023-09-22T07:07:25.641Z,997.34
2023-09-22T07:08:25.644Z,997.41
2023-09-22T07:09:25.618Z,997.41
2023-09-22T07:10:25.626Z,997.45
2023-09-22T07:11:25.620Z,997.44
2023-09-22T07:12:25.629Z,997.46
2023-09-22T07:13:25.607Z,997.52
2023-09-22T07:14:25.608Z,997.58
2023-09-22T07:15:25.627Z,997.60
2023-09-22T07:16:25.761Z,997.65
2023-09-22T07:17:25.649Z,997.67
2023-09-22T07:18:25.608Z,997.69
2023-09-22T07:19:25.612Z,997.70
2023-09-22T07:20:25.653Z,997.70
2023-09-22T07:21:25.763Z,997.70
2023-09-22T07:22:25.749Z,997.66
2023-09-22T07:23:25.649Z,997.64
2023-09-22T07:24:25.607Z,997.65
2023-09-22T07:25:25.606Z,997.66
2023-09-22T07:26:25.612Z,997.64
2023-09-22T07:27:25.604Z,997.62
2023-09-22T07:28:25.601Z,997.58
2023-09-22T07:29:25.601Z,997.63
2023-09-22T07:30:25.596Z,997.62
2023-09-22T07:31:25.677Z,997.65
2023-09-22T07:32:25.730Z,997.68
2023-09-22T07:33:25.593Z,997.69
2023-09-22T07:34:25.599Z,997.71
2023-09-22T07:35:25.619Z,997.77
2023-09-22T07:36:25.595Z,997.72
2023-09-22T07:37:25.755Z,997.70
2023-09-22T07:38:25.652Z,997.70
2023-09-22T07:39:25.586Z,997.72
2023-09-22T07:40:25.597Z,997.69
2023-09-22T07:41:42.038Z,997.61
2023-09-22T07:42:25.587Z,997.63
2023-09-22T07:43:25.614Z,997.64
2023-09-22T07:44:25.588Z,997.64
2023-09-22T07:45:25.624Z,997.68
2023-09-22T07:46:25.812Z,997.66
2023-09-22T07:47:25.662Z,997.69
2023-09-22T07:48:25.589Z,997.72
2023-09-22T07:49:25.584Z,997.69
2023-09-22T07:50:25.587Z,997.74
2023-09-22T07:51:25.591Z,997.78
2023-09-22T07:52:25.581Z,997.81
2023-09-22T07:53:25.579Z,997.79
2023-09-22T07:54:25.582Z,997.78
2023-09-22T07:55:25.605Z,997.79
2023-09-22T07:56:25.578Z,997.77
2023-09-22T07:57:25.584Z,997.78
2023-09-22T07:58:25.603Z,997.77
2023-09-22T07:59:25.577Z,997.81
2023-09-22T08:00:25.572Z,997.81
2023-09-22T08:01:25.676Z,997.82
2023-09-22T08:02:25.630Z,997.86
2023-09-22T08:03:25.696Z,997.83
2023-09-22T08:04:25.645Z,997.85
2023-09-22T08:05:25.580Z,997.83
2023-09-22T08:06:25.572Z,997.85
2023-09-22T08:07:25.580Z,997.87
2023-09-22T08:08:25.582Z,997.88
2023-09-22T08:09:25.570Z,997.91
2023-09-22T08:10:25.570Z,997.87
2023-09-22T08:11:25.598Z,997.89
2023-09-22T08:12:25.572Z,997.88
2023-09-22T08:13:25.564Z,997.84
2023-09-22T08:14:34.275Z,997.89
2023-09-22T08:15:25.572Z,997.87
2023-09-22T08:16:25.645Z,997.88
2023-09-22T08:17:25.668Z,997.89
2023-09-22T08:18:25.578Z,997.95
2023-09-22T08:19:25.593Z,997.94
2023-09-22T08:20:25.571Z,997.97
2023-09-22T08:21:25.573Z,997.96
2023-09-22T08:22:25.579Z,997.97
2023-09-22T08:23:38.373Z,997.95
2023-09-22T08:24:25.570Z,997.95
2023-09-22T08:25:25.610Z,997.89
2023-09-22T08:26:25.571Z,997.91
2023-09-22T08:27:25.557Z,997.87
2023-09-22T08:28:25.564Z,997.88
2023-09-22T08:29:25.572Z,997.88
2023-09-22T08:30:25.549Z,997.83
2023-09-22T08:31:25.558Z,997.82
2023-09-22T08:32:25.624Z,997.79
2023-09-22T08:33:25.589Z,997.80
2023-09-22T08:34:25.613Z,997.81
2023-09-22T08:35:25.596Z,997.74
2023-09-22T08:36:25.547Z,997.80
2023-09-22T08:37:25.568Z,997.75
2023-09-22T08:38:25.549Z,997.76
2023-09-22T08:39:25.573Z,997.74
2023-09-22T08:40:25.545Z,997.74
2023-09-22T08:41:25.549Z,997.74
2023-09-22T08:42:25.875Z,997.75
2023-09-22T08:43:25.624Z,997.71
2023-09-22T08:44:25.551Z,997.70
2023-09-22T08:45:25.743Z,997.71
2023-09-22T08:46:25.629Z,997.67
2023-09-22T08:47:25.588Z,997.69
2023-09-22T08:48:25.645Z,997.68
2023-09-22T08:49:25.622Z,997.65
2023-09-22T08:50:25.544Z,997.68
2023-09-22T08:51:25.561Z,997.67
2023-09-22T08:52:25.550Z,997.68
2023-09-22T08:53:25.544Z,997.66
2023-09-22T08:54:25.533Z,997.68
2023-09-22T08:55:25.742Z,997.68
2023-09-22T08:56:25.540Z,997.67
2023-09-22T08:57:25.541Z,997.70
2023-09-22T08:58:25.539Z,997.66
2023-09-22T08:59:25.532Z,997.64
2023-09-22T09:00:25.537Z,997.65
2023-09-22T09:01:25.772Z,997.64
2023-09-22T09:02:25.679Z,997.68
2023-09-22T09:03:25.693Z,997.72
2023-09-22T09:04:25.742Z,997.70
2023-09-22T09:05:25.544Z,997.72
2023-09-22T09:06:25.536Z,997.70
2023-09-22T09:07:25.548Z,997.73
2023-09-22T09:08:25.577Z,997.71
2023-09-22T09:09:25.535Z,997.75
2023-09-22T09:10:25.523Z,997.72
2023-09-22T09:11:25.537Z,997.72
2023-09-22T09:12:25.528Z,997.74
2023-09-22T09:13:25.547Z,997.72
2023-09-22T09:14:25.520Z,997.68
2023-09-22T09:15:25.529Z,997.68
2023-09-22T09:16:25.550Z,997.71
2023-09-22T09:17:25.568Z,997.68
2023-09-22T09:18:25.540Z,997.70
2023-09-22T09:19:25.529Z,997.72
2023-09-22T09:20:25.523Z,997.73
2023-09-22T09:21:25.529Z,997.74
2023-09-22T09:22:25.520Z,997.77
2023-09-22T09:23:25.534Z,997.69
2023-09-22T09:24:25.519Z,997.73
2023-09-22T09:25:25.526Z,997.79
2023-09-22T09:26:25.527Z,997.80
2023-09-22T09:27:25.518Z,997.79
2023-09-22T09:28:25.538Z,997.77
2023-09-22T09:29:25.515Z,997.77
2023-09-22T09:30:25.529Z,997.77
2023-09-22T09:31:25.595Z,997.80
2023-09-22T09:32:25.605Z,997.81
2023-09-22T09:33:25.508Z,997.77
2023-09-22T09:34:25.506Z,997.79
2023-09-22T09:35:35.659Z,997.80
2023-09-22T09:36:25.505Z,997.80
2023-09-22T09:37:25.510Z,997.85
2023-09-22T09:38:25.519Z,997.83
2023-09-22T09:39:25.542Z,997.82
2023-09-22T09:40:25.506Z,997.82
2023-09-22T09:41:25.503Z,997.83
2023-09-22T09:42:25.613Z,997.81
2023-09-22T09:43:25.544Z,997.86
2023-09-22T09:44:25.514Z,997.85
2023-09-22T09:45:25.517Z,997.82
2023-09-22T09:46:25.572Z,997.81
2023-09-22T09:47:29.336Z,997.84
2023-09-22T09:48:25.510Z,997.87
2023-09-22T09:49:25.508Z,997.88
2023-09-22T09:50:25.497Z,997.87
2023-09-22T09:51:25.503Z,997.85
2023-09-22T09:52:25.508Z,997.94
2023-09-22T09:53:25.504Z,997.91
2023-09-22T09:54:25.511Z,997.94
2023-09-22T09:55:25.623Z,997.94
2023-09-22T09:56:25.497Z,997.91
2023-09-22T09:57:25.489Z,997.90
2023-09-22T09:58:25.495Z,997.94
2023-09-22T09:59:25.507Z,997.92
2023-09-22T10:00:25.483Z,997.93
2023-09-22T10:01:25.538Z,997.91
2023-09-22T10:02:25.544Z,997.89
2023-09-22T10:03:25.596Z,997.99
2023-09-22T10:04:25.504Z,997.98
2023-09-22T10:05:25.469Z,997.98
2023-09-22T10:06:29.555Z,997.93
2023-09-22T10:07:25.491Z,997.99
2023-09-22T10:08:25.499Z,997.94
2023-09-22T10:09:25.475Z,997.98
2023-09-22T10:10:25.469Z,997.98
2023-09-22T10:11:25.476Z,997.99
2023-09-22T10:12:25.460Z,997.97
2023-09-22T10:13:25.462Z,997.98
2023-09-22T10:14:25.455Z,997.96
2023-09-22T10:15:25.447Z,997.97
2023-09-22T10:16:25.550Z,997.90
2023-09-22T10:17:25.513Z,997.96
2023-09-22T10:18:25.445Z,997.95
2023-09-22T10:19:25.439Z,997.96
2023-09-22T10:20:25.434Z,997.92
2023-09-22T10:21:25.425Z,997.96
2023-09-22T10:22:28.639Z,997.98
2023-09-22T10:23:25.428Z,998.01
2023-09-22T10:24:25.765Z,998.00
2023-09-22T10:25:31.585Z,998.04
2023-09-22T10:26:25.414Z,998.07
2023-09-22T10:27:25.429Z,998.11
2023-09-22T10:28:25.424Z,998.11
2023-09-22T10:29:25.413Z,998.10
2023-09-22T10:30:25.455Z,998.13
2023-09-22T10:31:25.476Z,998.13
2023-09-22T10:32:25.525Z,998.16
2023-09-22T10:33:25.401Z,998.16
2023-09-22T10:34:25.396Z,998.19
2023-09-22T10:35:25.397Z,998.12
2023-09-22T10:36:25.386Z,998.15
2023-09-22T10:37:25.391Z,998.18
2023-09-22T10:38:25.378Z,998.14
2023-09-22T10:39:25.377Z,998.11
2023-09-22T10:40:25.380Z,998.15
2023-09-22T10:41:25.366Z,998.18
2023-09-22T10:42:25.366Z,998.17
2023-09-22T10:43:25.393Z,998.17
2023-09-22T10:44:25.361Z,998.17
2023-09-22T10:45:25.361Z,998.17
2023-09-22T10:46:25.414Z,998.12
2023-09-22T10:47:25.372Z,998.15
2023-09-22T10:48:25.371Z,998.13
2023-09-22T10:49:25.352Z,998.12
2023-09-22T10:50:25.346Z,998.13
2023-09-22T10:51:25.397Z,998.12
2023-09-22T10:52:25.337Z,998.11
2023-09-22T10:53:25.336Z,998.10
2023-09-22T10:54:25.323Z,998.12
2023-09-22T10:55:25.354Z,998.13
2023-09-22T10:56:25.325Z,998.14
2023-09-22T10:57:25.329Z,998.17
2023-09-22T10:58:25.345Z,998.18
2023-09-22T10:59:25.485Z,998.15
2023-09-22T11:00:25.329Z,998.12
2023-09-22T11:01:25.353Z,998.13
2023-09-22T11:02:25.370Z,998.11
2023-09-22T11:03:25.353Z,998.17
2023-09-22T11:04:25.383Z,998.13
2023-09-22T11:05:25.449Z,998.13
2023-09-22T11:06:25.386Z,998.12
2023-09-22T11:07:25.333Z,998.14
2023-09-22T11:08:25.293Z,998.17
2023-09-22T11:09:25.292Z,998.19
2023-09-22T11:10:25.338Z,998.20
2023-09-22T11:11:25.281Z,998.19
2023-09-22T11:12:25.288Z,998.15
2023-09-22T11:13:25.440Z,998.17
2023-09-22T11:14:25.654Z,998.16
2023-09-22T11:15:25.317Z,998.25
2023-09-22T11:16:25.325Z,998.24
2023-09-22T11:17:25.306Z,998.22
2023-09-22T11:18:25.287Z,998.21
2023-09-22T11:19:25.350Z,998.29
2023-09-22T11:20:25.278Z,998.24
2023-09-22T11:21:25.289Z,998.30
2023-09-22T11:22:25.300Z,998.30
2023-09-22T11:23:25.261Z,998.27
2023-09-22T11:24:25.267Z,998.34
2023-09-22T11:25:25.280Z,998.27
2023-09-22T11:26:25.265Z,998.33
2023-09-22T11:27:25.261Z,998.32
2023-09-22T11:28:27.418Z,998.30
2023-09-22T11:29:25.253Z,998.28
2023-09-22T11:30:25.262Z,998.29
2023-09-22T11:31:25.348Z,998.31
2023-09-22T11:32:25.344Z,998.33
2023-09-22T11:33:25.346Z,998.24
2023-09-22T11:34:25.332Z,998.38
2023-09-22T11:35:26.270Z,998.32
2023-09-22T11:36:25.258Z,998.33
2023-09-22T11:37:25.253Z,998.40
2023-09-22T11:38:25.253Z,998.35
2023-09-22T11:39:25.291Z,998.34
2023-09-22T11:40:25.351Z,998.39
2023-09-22T11:41:25.263Z,998.36
2023-09-22T11:42:25.364Z,998.33
2023-09-22T11:43:25.297Z,998.32
2023-09-22T11:44:25.274Z,998.36
2023-09-22T11:45:29.325Z,998.39
2023-09-22T11:46:25.394Z,998.45
2023-09-22T11:47:25.327Z,998.41
2023-09-22T11:48:25.237Z,998.36
2023-09-22T11:49:25.306Z,998.36
2023-09-22T11:50:25.241Z,998.33
2023-09-22T11:51:25.233Z,998.32
2023-09-22T11:52:25.257Z,998.36
2023-09-22T11:53:26.659Z,998.37
2023-09-22T11:54:25.225Z,998.38
2023-09-22T11:55:25.258Z,998.43
2023-09-22T11:56:25.240Z,998.42
2023-09-22T11:57:25.233Z,998.41
2023-09-22T11:58:25.306Z,998.42
2023-09-22T11:59:25.225Z,998.47
2023-09-22T12:00:25.234Z,998.49
2023-09-22T12:01:25.281Z,998.47
2023-09-22T12:02:25.321Z,998.45
2023-09-22T12:03:25.306Z,998.43
2023-09-22T12:04:25.274Z,998.45
2023-09-22T12:05:25.232Z,998.49
2023-09-22T12:06:25.230Z,998.48
2023-09-22T12:07:25.273Z,998.47
2023-09-22T12:08:25.241Z,998.43
2023-09-22T12:09:25.222Z,998.45
2023-09-22T12:10:25.239Z,998.41
2023-09-22T12:11:25.212Z,998.44
2023-09-22T12:12:25.215Z,998.44
2023-09-22T12:13:25.238Z,998.45
2023-09-22T12:14:25.321Z,998.45
2023-09-22T12:15:25.208Z,998.39
2023-09-22T12:16:25.248Z,998.43
2023-09-22T12:17:25.248Z,998.40
2023-09-22T12:18:25.211Z,998.44
2023-09-22T12:19:25.262Z,998.41
2023-09-22T12:20:25.209Z,998.41
2023-09-22T12:21:25.198Z,998.45
2023-09-22T12:22:25.210Z,998.45
2023-09-22T12:23:25.190Z,998.45
2023-09-22T12:24:25.196Z,998.45
2023-09-22T12:25:25.212Z,998.45
2023-09-22T12:26:25.191Z,998.44
2023-09-22T12:27:25.180Z,998.44
2023-09-22T12:28:25.197Z,998.40
2023-09-22T12:29:25.203Z,998.41
2023-09-22T12:30:25.180Z,998.44